Time;durP1;ratioP1;P1;durP2;ratioP2;P2;SDS_P1;SDS_P2;PMS_P1;PMS_P2;Temp;Humidity;BMP_temperature;BMP_pressure;BME280_temperature;BME280_humidity;BME280_pressure;Samples;Min_cycle;Max_cycle;Signal;HPM_P1;HPM_P2
2022/09/27 00:01:54;;;;;;;3.33;3.13;;;14.00;88.60;;;16.79;64.24;99164.59;4904574;29;20584;-55
2022/09/27 00:04:21;;;;;;;4.17;3.77;;;14.00;88.70;;;16.84;63.78;99161.97;4904266;29;20209;-54
2022/09/27 00:06:49;;;;;;;4.20;3.90;;;14.00;88.50;;;16.84;63.93;99161.97;4904499;29;20191;-54
2022/09/27 00:09:16;;;;;;;3.10;2.90;;;14.00;88.20;;;16.88;63.87;99165.72;4910269;29;20607;-55
2022/09/27 00:11:46;;;;;;;4.20;3.80;;;14.00;88.40;;;16.92;63.62;99164.97;4922902;29;20195;-56
2022/09/27 00:14:16;;;;;;;4.87;4.47;;;14.10;88.50;;;16.90;63.47;99161.75;4912301;29;20214;-54
2022/09/27 00:16:44;;;;;;;4.47;4.17;;;14.10;88.00;;;16.89;63.71;99170.81;4904360;29;20203;-56
2022/09/27 00:19:14;;;;;;;4.77;4.40;;;14.10;88.10;;;16.85;63.79;99168.91;4904089;29;20202;-57
2022/09/27 00:21:43;;;;;;;5.93;5.43;;;14.10;87.90;;;16.79;63.86;99175.22;4904314;29;20232;-57
2022/09/27 00:24:12;;;;;;;5.67;5.17;;;14.10;87.70;;;16.75;64.12;99172.28;4904013;29;20202;-57
2022/09/27 00:26:40;;;;;;;5.37;4.97;;;14.10;87.80;;;16.79;64.09;99164.59;4904851;29;20196;-58
2022/09/27 00:29:10;;;;;;;5.80;5.40;;;14.10;88.70;;;16.86;63.70;99165.19;4904982;29;20199;-57
2022/09/27 00:31:38;;;;;;;4.73;4.40;;;14.10;88.70;;;16.93;64.00;99160.47;4903155;29;20255;-57
2022/09/27 00:34:09;;;;;;;5.20;4.70;;;14.10;88.40;;;16.98;63.93;99157.84;4904690;29;20218;-56
2022/09/27 00:36:37;;;;;;;4.60;4.30;;;14.10;88.50;;;17.05;63.69;99158.41;4902586;29;20227;-56
2022/09/27 00:39:04;;;;;;;7.30;6.70;;;14.10;88.90;;;17.11;63.47;99162.72;4905914;29;20203;-56
2022/09/27 00:41:35;;;;;;;7.03;6.33;;;14.20;88.70;;;17.15;63.42;99163.81;4921409;29;20214;-54
2022/09/27 00:44:28;;;;;;;6.83;6.30;;;14.20;88.50;;;17.18;63.72;99154.53;4909837;29;20662;-56
2022/09/27 00:47:03;;;;;;;5.60;5.10;;;14.30;88.60;;;17.19;63.50;99151.59;4900611;29;20275;-54
2022/09/27 00:49:37;;;;;;;7.57;6.87;;;14.30;88.50;;;17.26;63.31;99154.84;4900995;29;20638;-57
2022/09/27 00:52:12;;;;;;;7.63;7.03;;;14.40;88.30;;;17.31;63.33;99154.88;4900653;29;20206;-55
2022/09/27 00:54:45;;;;;;;7.87;7.17;;;14.40;88.10;;;17.33;62.93;99144.00;4894616;29;20195;-55
2022/09/27 00:57:13;;;;;;;7.23;6.63;;;14.40;87.90;;;17.36;63.12;99146.13;4900621;29;20195;-56
2022/09/27 00:59:46;;;;;;;8.97;8.03;;;14.40;87.90;;;17.36;63.08;99143.47;4900719;29;20594;-55
2022/09/27 01:02:15;;;;;;;8.57;7.87;;;14.40;87.90;;;17.39;62.79;99141.09;4899979;29;20218;-56
2022/09/27 01:04:46;;;;;;;10.17;9.23;;;14.40;87.70;;;17.39;62.60;99142.94;4900241;29;20247;-55
2022/09/27 01:07:13;;;;;;;8.90;8.20;;;14.40;87.70;;;17.38;62.69;99146.66;4919102;29;20222;-56
2022/09/27 01:09:41;;;;;;;10.10;9.20;;;14.50;87.70;;;17.37;62.81;99139.75;4919158;29;20595;-55
2022/09/27 01:12:26;;;;;;;10.03;8.67;;;14.50;87.70;;;17.33;62.71;99139.44;4917570;29;20211;-55
2022/09/27 01:15:16;;;;;;;9.77;8.87;;;14.40;87.50;;;17.31;62.72;99146.09;4903952;29;20199;-53
2022/09/27 01:18:04;;;;;;;9.93;8.93;;;14.50;87.70;;;17.30;62.62;99140.00;4900492;29;20196;-55
2022/09/27 01:21:23;;;;;;;10.47;9.37;;;14.40;87.50;;;17.22;62.84;99152.94;4899887;29;20283;-57
2022/09/27 01:24:16;;;;;;;9.53;8.63;;;14.40;87.40;;;17.22;62.88;99151.09;4900663;29;20282;-58
2022/09/27 01:27:22;;;;;;;9.70;8.70;;;14.40;87.30;;;17.18;62.85;99139.38;4901366;29;20239;-57
2022/09/27 01:30:15;;;;;;;18.63;8.70;;;14.40;88.00;;;17.20;62.74;99139.91;4900032;29;20199;-57
2022/09/27 01:32:53;;;;;;;9.53;8.20;;;14.40;87.20;;;17.22;62.52;99132.47;4897655;29;20314;-58
2022/09/27 01:35:35;;;;;;;8.17;7.30;;;14.40;87.10;;;17.19;62.51;99143.63;4899777;29;20203;-55
2022/09/27 01:38:15;;;;;;;10.30;7.30;;;14.40;87.00;;;17.20;62.51;99129.28;4899906;29;20206;-55
2022/09/27 01:40:56;;;;;;;7.20;6.60;;;14.30;87.00;;;17.23;62.71;99142.06;4915445;29;20680;-56
2022/09/27 01:43:32;;;;;;;8.17;7.37;;;14.30;87.20;;;17.26;62.34;99138.88;4907407;29;20231;-57
2022/09/27 01:46:07;;;;;;;8.60;6.97;;;14.30;87.20;;;17.29;62.28;99132.25;4899546;29;20599;-58
2022/09/27 01:48:42;;;;;;;7.37;6.67;;;14.30;87.40;;;17.33;62.67;99134.13;4899305;29;20655;-57
2022/09/27 01:51:16;;;;;;;8.27;6.43;;;14.40;87.50;;;17.35;62.28;99134.66;4899197;29;20223;-56
2022/09/27 01:53:47;;;;;;;7.10;6.30;;;14.40;87.80;;;17.37;62.18;99132.56;4894815;29;20215;-57
2022/09/27 01:56:24;;;;;;;6.93;5.50;;;14.40;87.20;;;17.37;62.40;99135.25;4880652;29;20184;-58
2022/09/27 01:58:58;;;;;;;8.57;5.27;;;14.40;87.10;;;17.38;62.26;99131.50;4880818;29;20188;-56
2022/09/27 02:01:31;;;;;;;6.10;5.37;;;14.40;86.90;;;17.38;62.12;99128.84;4884746;29;20232;-55
2022/09/27 02:04:02;;;;;;;5.77;5.03;;;14.40;86.70;;;17.38;61.99;99131.50;4892755;29;20307;-57
2022/09/27 02:06:38;;;;;;;5.23;4.73;;;14.40;86.50;;;17.36;61.81;99133.63;4880498;29;20221;-54
2022/09/27 02:09:12;;;;;;;5.23;4.73;;;14.40;86.30;;;17.32;61.76;99127.22;4880933;29;20202;-54
2022/09/27 02:11:48;;;;;;;7.20;4.73;;;14.40;86.10;;;17.28;61.89;99136.75;4880256;29;20184;-54
2022/09/27 02:14:30;;;;;;;5.73;4.23;;;14.40;86.10;;;17.24;61.76;99141.00;4889484;29;20203;-56
2022/09/27 02:17:09;;;;;;;7.43;4.17;;;14.40;86.00;;;17.20;61.86;99131.94;4899226;29;20209;-56
2022/09/27 02:19:50;;;;;;;6.93;3.87;;;14.30;85.80;;;17.20;61.61;99137.25;4899843;29;20271;-58
2022/09/27 02:22:29;;;;;;;5.33;3.80;;;14.30;85.80;;;17.17;61.67;99127.13;4901633;29;20291;-58
2022/09/27 02:25:04;;;;;;;4.20;3.40;;;14.30;85.70;;;17.14;61.83;99135.63;4888325;29;20211;-57
2022/09/27 02:27:39;;;;;;;5.40;3.27;;;14.30;85.80;;;17.13;61.50;99128.72;4882094;29;20184;-57
2022/09/27 02:30:10;;;;;;;5.07;3.33;;;14.30;85.70;;;17.15;61.81;99134.56;4881529;29;20203;-54
2022/09/27 02:32:40;;;;;;;5.87;3.50;;;14.20;85.70;;;17.17;61.46;99127.13;4880289;29;20256;-57
2022/09/27 02:35:15;;;;;;;4.70;3.40;;;14.30;85.80;;;17.16;61.65;99133.53;4881816;29;20197;-55
2022/09/27 02:37:43;;;;;;;6.17;3.20;;;14.20;85.70;;;17.17;61.53;99132.44;4883234;29;20282;-56
2022/09/27 02:40:12;;;;;;;3.70;3.30;;;14.20;85.70;;;17.16;61.35;99143.34;4911565;29;20755;-57
2022/09/27 02:42:43;;;;;;;3.13;2.60;;;14.20;85.60;;;17.14;61.57;99138.28;4913956;29;20234;-57
2022/09/27 02:45:14;;;;;;;3.00;2.40;;;14.20;85.60;;;17.11;61.39;99140.66;4912758;29;20191;-57
2022/09/27 02:48:08;;;;;;;3.20;2.47;;;14.20;85.50;;;17.07;61.55;99140.34;4899382;29;20199;-57
2022/09/27 02:51:00;;;;;;;4.43;2.43;;;14.20;85.40;;;17.04;61.46;99135.56;4899354;29;20187;-57
2022/09/27 02:53:42;;;;;;;4.30;2.57;;;14.20;85.40;;;17.04;61.52;99140.06;4897814;29;20740;-57
2022/09/27 02:56:23;;;;;;;2.90;2.30;;;14.20;85.30;;;17.01;61.35;99130.75;4894185;29;20222;-57
2022/09/27 02:59:05;;;;;;;3.23;2.20;;;14.10;85.10;;;16.97;61.29;99135.00;4903300;29;20198;-57
2022/09/27 03:01:53;;;;;;;2.40;1.80;;;14.10;85.10;;;16.91;61.25;99134.16;4916567;29;20207;-54
2022/09/27 03:04:32;;;;;;;5.73;2.47;;;14.10;85.10;;;16.92;61.42;99137.59;4908949;29;20538;-57
2022/09/27 03:07:01;;;;;;;2.67;2.10;;;14.00;85.20;;;16.94;61.34;99135.50;4898312;29;20199;-57
2022/09/27 03:09:40;;;;;;;2.43;1.70;;;14.00;85.40;;;16.90;61.62;99134.41;4898435;29;20199;-56
2022/09/27 03:12:07;;;;;;;3.70;1.97;;;14.00;85.50;;;16.92;61.68;99126.97;4898548;29;20655;-54
2022/09/27 03:14:35;;;;;;;2.73;1.93;;;14.00;85.50;;;16.93;61.58;99133.88;4898191;29;20203;-56
2022/09/27 03:17:02;;;;;;;2.60;2.10;;;14.00;85.50;;;16.93;61.52;99133.88;4912849;29;20207;-56
2022/09/27 03:19:31;;;;;;;1.93;1.50;;;14.00;85.50;;;16.91;61.48;99133.34;4898203;29;20582;-56
2022/09/27 03:22:00;;;;;;;1.70;1.30;;;14.00;85.50;;;16.90;61.25;99135.19;4897689;29;20223;-56
2022/09/27 03:24:27;;;;;;;2.50;1.77;;;14.00;85.50;;;16.88;61.37;99136.50;4898057;29;20266;-54
2022/09/27 03:26:54;;;;;;;2.97;1.57;;;14.00;85.50;;;16.87;61.60;99130.41;4897700;29;20195;-54
2022/09/27 03:29:21;;;;;;;2.57;1.40;;;14.00;85.50;;;16.88;61.56;99136.50;4897955;29;20203;-54
2022/09/27 03:31:49;;;;;;;2.60;1.80;;;13.90;85.60;;;16.88;61.52;99133.84;4896656;29;20239;-54
2022/09/27 03:34:16;;;;;;;2.73;1.37;;;13.90;85.70;;;16.88;61.49;99133.84;4897841;29;20274;-56
2022/09/27 03:36:45;;;;;;;3.70;1.30;;;14.00;85.70;;;16.88;61.47;99136.50;4897951;29;20605;-53
2022/09/27 03:39:12;;;;;;;1.33;1.17;;;14.00;86.40;;;16.84;61.43;99133.56;4902446;29;20198;-56
2022/09/27 03:41:40;;;;;;;1.83;1.10;;;14.00;85.40;;;16.82;61.51;99126.91;4917007;29;20226;-53
2022/09/27 03:44:08;;;;;;;2.73;1.20;;;13.90;85.20;;;16.82;61.53;99137.53;4902275;29;20203;-55
2022/09/27 03:46:35;;;;;;;3.27;1.13;;;13.90;85.20;;;16.79;61.48;99132.72;4912739;29;20564;-57
2022/09/27 03:49:03;;;;;;;2.67;1.00;;;13.90;85.20;;;16.78;61.58;99131.13;4898096;29;20223;-54
2022/09/27 03:51:30;;;;;;;4.33;1.23;;;13.90;85.20;;;16.75;61.38;99131.63;4897662;29;20187;-55
2022/09/27 03:53:59;;;;;;;1.53;1.03;;;13.90;85.20;;;16.71;61.46;99131.31;4897831;29;20226;-55
2022/09/27 03:56:27;;;;;;;2.53;1.17;;;13.80;85.10;;;16.68;61.51;99131.03;4898075;29;20202;-55
2022/09/27 03:58:54;;;;;;;2.70;1.03;;;13.80;85.10;;;16.66;61.40;99133.94;4898158;29;20712;-55
2022/09/27 04:01:21;;;;;;;3.73;1.63;;;13.80;85.10;;;16.63;61.69;99128.34;4898600;29;20267;-54
2022/09/27 04:03:49;;;;;;;3.73;1.50;;;13.80;85.20;;;16.61;61.32;99131.25;4898716;29;20222;-54
2022/09/27 04:06:17;;;;;;;2.80;1.93;;;13.80;86.10;;;16.60;61.59;99139.47;4899527;29;20298;-54
2022/09/27 04:08:46;;;;;;;2.20;1.90;;;13.70;85.20;;;16.59;61.69;99138.66;4898381;29;20251;-54
2022/09/27 04:11:15;;;;;;;8.20;2.53;;;13.70;85.60;;;16.59;61.32;99137.88;4899583;29;20188;-55
2022/09/27 04:13:43;;;;;;;2.80;1.90;;;13.80;85.60;;;16.57;61.74;99138.09;4902396;29;20219;-54
2022/09/27 04:16:10;;;;;;;2.87;2.60;;;13.70;85.50;;;16.58;61.51;99136.25;4900925;29;20226;-55
2022/09/27 04:18:38;;;;;;;4.00;2.30;;;13.70;85.60;;;16.54;61.85;99137.81;4916618;29;20263;-54
2022/09/27 04:21:05;;;;;;;3.00;2.17;;;13.70;85.60;;;16.55;62.04;99136.75;4901435;29;20210;-54
2022/09/27 04:23:33;;;;;;;2.87;2.00;;;13.70;85.80;;;16.56;61.71;99130.41;4901516;29;20219;-56
2022/09/27 04:26:00;;;;;;;3.87;2.80;;;13.70;85.90;;;16.54;61.76;99125.34;4882793;29;20256;-54
2022/09/27 04:28:29;;;;;;;5.27;3.63;;;13.70;85.70;;;16.55;61.69;99134.91;4882994;29;20203;-54
2022/09/27 04:30:56;;;;;;;4.17;3.10;;;13.70;85.90;;;16.55;61.62;99132.25;4880221;29;20230;-57
2022/09/27 04:33:24;;;;;;;3.73;2.77;;;13.70;85.90;;;16.57;61.78;99134.69;4881990;29;20220;-54
2022/09/27 04:38:37;;;;;;;4.57;2.63;;;13.70;85.90;;;16.52;61.81;99137.28;4900957;29;20215;-55
2022/09/27 04:41:06;;;;;;;3.13;2.53;;;13.70;85.80;;;16.51;62.10;99140.94;4882628;29;20192;-54
2022/09/27 04:43:35;;;;;;;4.33;2.80;;;13.70;86.00;;;16.51;61.92;99135.63;4895118;29;20227;-57
2022/09/27 04:46:02;;;;;;;4.53;2.83;;;13.70;85.90;;;16.51;61.99;99146.25;4903014;29;20258;-55
2022/09/27 04:48:29;;;;;;;4.93;2.57;;;13.70;86.00;;;16.50;62.21;99139.34;4900313;29;20669;-54
2022/09/27 04:50:58;;;;;;;5.47;3.00;;;13.70;86.00;;;16.51;62.03;99144.44;4909160;29;20195;-55
2022/09/27 04:53:25;;;;;;;2.63;2.33;;;13.60;86.00;;;16.51;61.97;99143.59;4919162;29;20271;-55
2022/09/27 04:55:53;;;;;;;3.13;2.40;;;13.70;86.00;;;16.50;62.14;99153.41;4900553;29;20634;-55
2022/09/27 04:58:21;;;;;;;5.57;2.83;;;13.70;86.00;;;16.51;61.93;99155.06;4899280;29;20204;-56
2022/09/27 05:00:54;;;;;;;2.50;2.30;;;13.60;85.90;;;16.50;62.01;99149.97;4900639;29;20203;-55
2022/09/27 05:03:22;;;;;;;3.43;2.60;;;13.70;86.00;;;16.50;62.00;99152.63;4900305;29;20229;-54
2022/09/27 05:05:49;;;;;;;5.77;2.70;;;13.70;86.00;;;16.50;61.82;99156.06;4900729;29;20203;-57
2022/09/27 05:08:17;;;;;;;3.43;2.40;;;13.70;86.00;;;16.51;62.08;99156.88;4917850;29;20199;-57
2022/09/27 05:10:44;;;;;;;3.53;2.27;;;13.60;85.80;;;16.53;61.90;99160.13;4901064;29;20195;-56
2022/09/27 05:13:12;;;;;;;5.07;2.80;;;13.70;85.90;;;16.54;61.79;99167.06;4900484;29;20211;-55
2022/09/27 05:15:40;;;;;;;4.73;2.10;;;13.70;85.90;;;16.56;61.87;99170.25;4899997;29;20211;-57
2022/09/27 05:18:09;;;;;;;5.43;2.43;;;13.60;85.80;;;16.57;61.55;99177.97;4900229;29;20582;-58
2022/09/27 05:20:36;;;;;;;2.47;1.77;;;13.70;85.70;;;16.56;61.56;99176.38;4900002;29;20200;-56
2022/09/27 05:23:04;;;;;;;3.33;1.73;;;13.70;85.60;;;16.56;61.72;99178.22;4899513;29;20227;-56
2022/09/27 05:25:32;;;;;;;4.00;2.53;;;13.60;85.30;;;16.56;61.59;99180.88;4900539;29;20207;-58
2022/09/27 05:28:00;;;;;;;2.60;2.00;;;13.60;85.20;;;16.56;61.41;99186.19;4901150;29;20673;-58
2022/09/27 05:30:27;;;;;;;4.60;2.40;;;13.60;85.10;;;16.56;61.43;99186.19;4900557;29;20535;-55
2022/09/27 05:32:55;;;;;;;2.73;2.27;;;13.60;85.10;;;16.55;61.63;99190.69;4899728;29;20746;-55
2022/09/27 05:35:24;;;;;;;3.87;2.53;;;13.60;86.30;;;16.58;61.31;99184.06;4899621;29;20234;-54
2022/09/27 05:37:53;;;;;;;3.00;2.23;;;13.70;85.40;;;16.56;61.21;99187.00;4900164;29;20274;-53
2022/09/27 05:40:24;;;;;;;3.30;2.60;;;13.70;85.40;;;16.59;61.66;99188.34;4899982;29;20222;-56
2022/09/27 05:43:09;;;;;;;4.27;2.60;;;13.70;85.50;;;16.60;61.60;99189.94;4899317;29;20227;-57
2022/09/27 05:45:36;;;;;;;3.87;2.50;;;13.70;85.20;;;16.61;61.25;99191.56;4899340;29;20204;-58
2022/09/27 05:48:05;;;;;;;3.60;2.50;;;13.60;84.90;;;16.60;60.97;99193.41;4899682;29;20195;-56
2022/09/27 05:50:34;;;;;;;4.70;2.57;;;13.60;84.90;;;16.60;61.27;99189.94;4899323;29;20665;-58
2022/09/27 05:53:01;;;;;;;4.90;3.43;;;13.60;84.90;;;16.59;61.26;99191.78;4899477;29;20207;-55
2022/09/27 05:55:29;;;;;;;4.43;2.53;;;13.70;85.10;;;16.60;60.98;99187.28;4898914;29;20267;-56
2022/09/27 05:57:59;;;;;;;3.00;2.30;;;13.60;84.80;;;16.60;60.85;99187.28;4899574;29;20191;-54
2022/09/27 06:00:28;;;;;;;3.70;2.93;;;13.70;84.90;;;16.56;61.05;99192.31;4899287;29;20207;-56
2022/09/27 06:02:57;;;;;;;3.97;2.70;;;13.60;84.70;;;16.54;60.92;99188.31;4899452;29;20340;-56
2022/09/27 06:05:28;;;;;;;3.67;2.57;;;13.60;84.70;;;16.52;60.96;99179.78;4898178;29;20677;-60
2022/09/27 06:08:01;;;;;;;3.20;2.73;;;13.60;85.40;;;16.51;60.99;99188.75;4897511;29;20239;-58
2022/09/27 06:10:30;;;;;;;3.23;2.93;;;13.60;84.90;;;16.53;61.34;99192.00;4898629;29;20290;-56
2022/09/27 06:13:01;;;;;;;3.00;2.50;;;13.60;84.90;;;16.51;61.07;99194.91;4899079;29;20227;-57
2022/09/27 06:15:31;;;;;;;3.10;2.80;;;13.60;84.60;;;16.52;61.13;99201.81;4912711;29;20207;-56
2022/09/27 06:18:04;;;;;;;3.70;3.30;;;13.60;84.70;;;16.52;61.06;99196.50;4899007;29;20223;-57
2022/09/27 06:20:33;;;;;;;3.23;2.93;;;13.60;84.50;;;16.56;61.13;99192.31;4897573;29;20205;-56
2022/09/27 06:23:11;;;;;;;3.10;2.80;;;13.70;84.70;;;16.58;60.65;99200.00;4897849;29;20299;-54
2022/09/27 06:25:40;;;;;;;3.27;2.90;;;13.70;84.50;;;16.58;60.48;99200.81;4913304;29;20206;-57
2022/09/27 06:28:10;;;;;;;3.67;2.93;;;13.60;84.30;;;16.59;60.70;99206.94;4898155;29;20219;-57
2022/09/27 06:30:39;;;;;;;4.73;2.93;;;13.60;84.20;;;16.60;60.81;99200.56;4898183;29;20187;-56
2022/09/27 06:33:11;;;;;;;2.70;2.50;;;13.70;84.20;;;16.63;60.61;99202.72;4897323;29;20254;-57
2022/09/27 06:35:44;;;;;;;2.83;2.60;;;13.70;84.40;;;16.66;60.78;99208.31;4897532;29;20219;-57
2022/09/27 06:38:14;;;;;;;4.67;2.80;;;13.70;84.30;;;16.70;60.61;99209.44;4898124;29;20199;-57
2022/09/27 06:40:46;;;;;;;4.10;2.80;;;13.70;84.40;;;16.75;60.62;99208.69;4898189;29;20243;-57
2022/09/27 06:43:17;;;;;;;4.40;2.90;;;13.70;84.40;;;16.81;60.76;99220.94;4906428;29;20621;-57
2022/09/27 06:45:45;;;;;;;3.17;2.37;;;13.80;84.90;;;16.85;60.41;99219.41;4902814;29;20199;-57
2022/09/27 06:48:15;;;;;;;3.73;2.67;;;13.80;84.30;;;16.80;60.04;99219.38;4899686;29;20560;-58
2022/09/27 06:50:45;;;;;;;3.77;2.50;;;13.80;83.50;;;16.84;59.89;99225.78;4897283;29;20210;-57
2022/09/27 06:53:15;;;;;;;2.87;2.07;;;13.90;83.60;;;16.87;59.91;99219.97;4897569;29;20235;-58
2022/09/27 06:55:43;;;;;;;2.97;2.30;;;13.90;83.70;;;16.98;60.00;99226.94;4896963;29;20214;-57
2022/09/27 07:00:57;;;;;;;3.07;2.37;;;14.00;83.90;;;17.10;59.84;99230.25;4898308;29;20176;-54
2022/09/27 07:03:30;;;;;;;2.33;1.83;;;14.00;83.60;;;17.13;59.72;99235.06;4898949;29;20573;-56
2022/09/27 07:06:06;;;;;;;3.53;2.07;;;14.00;83.20;;;17.16;59.68;99234.56;4898369;29;20191;-58
2022/09/27 07:08:35;;;;;;;4.40;1.63;;;14.10;83.50;;;17.22;59.34;99233.53;4897615;29;20255;-55
2022/09/27 07:11:05;;;;;;;3.07;1.70;;;14.10;83.00;;;17.21;58.88;99234.56;4898345;29;20199;-56
2022/09/27 07:13:35;;;;;;;2.50;1.87;;;14.10;82.60;;;17.20;58.87;99238.31;4898407;29;20749;-55
2022/09/27 07:16:03;;;;;;;3.60;1.80;;;14.10;82.20;;;17.17;58.57;99236.16;4897756;29;20275;-55
2022/09/27 07:18:31;;;;;;;3.67;1.57;;;14.20;82.30;;;17.16;59.05;99239.88;4898999;29;20728;-57
2022/09/27 07:21:02;;;;;;;2.03;1.57;;;14.20;82.40;;;17.15;58.92;99242.78;4904391;29;20217;-55
2022/09/27 07:23:30;;;;;;;2.50;1.23;;;14.20;82.10;;;17.13;58.76;99244.91;4918053;29;20226;-55
2022/09/27 07:26:03;;;;;;;2.77;1.60;;;14.20;81.90;;;17.11;58.59;99253.13;4902466;29;20199;-56
2022/09/27 07:28:31;;;;;;;1.73;1.53;;;14.10;81.70;;;17.15;58.72;99253.41;4880347;29;20196;-56
2022/09/27 07:31:01;;;;;;;2.57;1.70;;;14.10;81.80;;;17.17;58.76;99260.09;4879394;29;20200;-57
2022/09/27 07:33:30;;;;;;;3.33;1.47;;;14.10;82.00;;;17.23;58.75;99267.06;4878520;29;20279;-56
2022/09/27 07:35:57;;;;;;;2.50;1.40;;;14.20;82.30;;;17.29;58.73;99262.56;4894684;29;20205;-56
2022/09/27 07:38:25;;;;;;;3.13;1.57;;;14.20;82.10;;;17.34;58.66;99268.75;4898417;29;20191;-56
2022/09/27 07:40:53;;;;;;;2.10;1.27;;;14.20;81.90;;;17.38;58.22;99271.69;4917493;29;20206;-55
2022/09/27 07:43:24;;;;;;;4.47;1.47;;;14.20;81.70;;;17.42;58.28;99265.59;4907555;29;20273;-58
2022/09/27 07:45:54;;;;;;;4.50;1.53;;;14.30;81.80;;;17.50;58.13;99272.28;4899291;29;20330;-58
2022/09/27 07:48:22;;;;;;;1.43;1.27;;;14.30;82.00;;;17.62;58.18;99274.81;4902504;29;20195;-58
2022/09/27 07:50:52;;;;;;;4.63;1.40;;;14.40;82.00;;;17.68;57.70;99274.59;4901722;29;20263;-57
2022/09/27 07:53:20;;;;;;;3.17;1.20;;;14.50;81.10;;;17.70;57.42;99287.63;4901312;29;20218;-59
2022/09/27 07:55:51;;;;;;;2.30;1.10;;;14.50;80.80;;;17.70;57.41;99283.13;4919092;29;20215;-56
2022/09/27 07:58:21;;;;;;;6.10;1.27;;;14.50;80.70;;;17.71;57.20;99291.91;4903160;29;20306;-54
2022/09/27 08:00:49;;;;;;;2.40;1.20;;;14.50;80.00;;;17.68;57.21;99287.91;4901755;29;20191;-56
2022/09/27 08:03:17;;;;;;;3.47;1.50;;;14.60;80.20;;;17.72;57.20;99290.84;4901111;29;20234;-57
2022/09/27 08:05:46;;;;;;;1.33;0.63;;;14.60;80.50;;;17.74;57.13;99286.06;4901098;29;20199;-58
2022/09/27 08:08:16;;;;;;;3.13;1.50;;;14.60;80.30;;;17.80;57.11;99293.03;4901382;29;20247;-58
2022/09/27 08:10:45;;;;;;;2.23;1.10;;;14.60;80.60;;;17.83;56.96;99295.97;4901315;29;20202;-57
2022/09/27 08:13:16;;;;;;;1.60;1.50;;;14.70;80.40;;;17.85;56.81;99306.38;4900935;29;20705;-57
2022/09/27 08:15:44;;;;;;;4.23;1.57;;;14.70;79.60;;;17.83;56.72;99297.84;4900623;29;20195;-54
2022/09/27 08:18:13;;;;;;;4.03;1.30;;;14.70;79.60;;;17.83;56.60;99308.50;4915868;29;20222;-56
2022/09/27 08:20:45;;;;;;;1.43;0.80;;;14.70;79.50;;;17.83;56.64;99308.50;4902187;29;20196;-57
2022/09/27 08:23:14;;;;;;;2.80;1.87;;;14.70;79.20;;;17.79;56.56;99302.88;4899697;29;20230;-57
2022/09/27 08:25:43;;;;;;;3.07;1.70;;;14.70;79.30;;;17.79;56.56;99312.72;4900821;29;20203;-58
2022/09/27 08:28:10;;;;;;;3.00;1.40;;;14.70;79.10;;;17.76;56.25;99314.03;4902658;29;20204;-57
2022/09/27 08:30:38;;;;;;;2.77;1.03;;;14.70;78.70;;;17.73;56.27;99319.06;4903992;29;20215;-55
2022/09/27 08:33:05;;;;;;;2.00;1.27;;;14.70;78.80;;;17.70;56.29;99322.25;4899824;29;20227;-57
2022/09/27 08:35:34;;;;;;;3.07;1.70;;;14.70;78.70;;;17.68;56.34;99321.69;4908091;29;20262;-56
2022/09/27 08:38:04;;;;;;;2.40;1.00;;;14.60;78.70;;;17.68;56.45;99324.34;4908516;29;20212;-56
2022/09/27 08:40:49;;;;;;;2.53;1.00;;;14.60;78.80;;;17.64;56.46;99325.94;4903024;29;20704;-56
2022/09/27 08:43:36;;;;;;;2.73;1.40;;;14.60;78.90;;;17.63;56.40;99337.63;4907949;29;20250;-55
2022/09/27 08:46:26;;;;;;;1.60;1.17;;;14.60;79.00;;;17.63;56.61;99330.44;4900993;29;20199;-55
2022/09/27 08:49:04;;;;;;;1.77;1.33;;;14.60;79.10;;;17.68;56.84;99332.34;4900366;29;20665;-55
2022/09/27 08:51:35;;;;;;;2.17;1.20;;;14.70;79.50;;;17.77;56.75;99330.81;4900450;29;20192;-55
2022/09/27 08:54:13;;;;;;;2.60;1.47;;;14.70;79.60;;;17.84;56.61;99334.03;4898208;29;20232;-55
2022/09/27 08:56:42;;;;;;;2.33;1.30;;;14.70;79.70;;;17.93;56.61;99330.66;4895904;29;20237;-58
2022/09/27 08:59:24;;;;;;;2.40;1.60;;;14.80;80.00;;;17.95;56.25;99338.38;4899678;29;20222;-58
2022/09/27 09:01:53;;;;;;;3.10;1.77;;;14.80;79.60;;;17.98;56.32;99341.34;4898415;29;20667;-57
2022/09/27 09:04:30;;;;;;;4.70;1.50;;;14.80;79.30;;;17.98;56.30;99333.34;4897239;29;20223;-55
2022/09/27 09:07:19;;;;;;;2.33;1.37;;;14.90;79.30;;;18.00;56.23;99335.75;4883072;29;20228;-58
2022/09/27 09:09:59;;;;;;;2.20;1.73;;;14.90;79.20;;;17.95;55.68;99341.03;4917207;29;20704;-58
2022/09/27 09:12:46;;;;;;;1.87;1.20;;;14.80;77.70;;;17.85;55.73;99339.09;4879992;29;20228;-55
2022/09/27 09:15:31;;;;;;;1.10;1.00;;;14.80;78.10;;;17.83;55.65;99335.91;4891039;29;20208;-58
2022/09/27 09:18:30;;;;;;;2.33;1.33;;;14.80;78.10;;;17.79;56.20;99342.81;4900603;29;20270;-58
2022/09/27 09:21:12;;;;;;;3.23;1.10;;;14.80;78.30;;;17.83;56.04;99351.09;4898169;29;20211;-57
2022/09/27 09:24:08;;;;;;;4.70;1.50;;;14.80;78.30;;;17.82;55.88;99357.47;4892608;29;20237;-54
2022/09/27 09:26:46;;;;;;;3.63;1.30;;;14.80;78.10;;;17.88;56.05;99359.09;4895626;29;20195;-56
2022/09/27 09:29:33;;;;;;;2.33;1.10;;;14.80;78.40;;;17.87;55.81;99362.81;4892000;29;20199;-57
2022/09/27 09:32:17;;;;;;;1.50;0.93;;;14.80;78.10;;;17.81;55.37;99363.84;4896596;29;20258;-58
2022/09/27 09:34:53;;;;;;;3.77;0.97;;;14.80;77.70;;;17.75;55.25;99370.19;4915191;29;20202;-57
2022/09/27 09:37:36;;;;;;;1.23;0.80;;;14.80;77.80;;;17.70;54.92;99372.81;4900248;29;20198;-56
2022/09/27 09:40:21;;;;;;;1.37;0.93;;;14.80;76.70;;;17.63;55.17;99378.34;4900335;29;20207;-56
2022/09/27 09:42:56;;;;;;;2.10;1.60;;;14.70;76.70;;;17.63;55.54;99369.56;4901695;29;20231;-58
2022/09/27 09:45:30;;;;;;;1.63;1.43;;;14.70;77.10;;;17.59;55.50;99383.34;4899647;29;20199;-57
2022/09/27 09:48:05;;;;;;;1.57;1.30;;;14.70;77.20;;;17.59;55.68;99379.91;4900264;29;20203;-58
2022/09/27 09:50:42;;;;;;;2.67;1.13;;;14.70;77.50;;;17.65;55.65;99378.09;4901893;29;20195;-57
2022/09/27 09:53:15;;;;;;;4.37;1.20;;;14.70;77.90;;;17.66;55.55;99388.50;4922966;29;20222;-58
2022/09/27 09:55:53;;;;;;;3.10;1.30;;;14.70;77.60;;;17.65;55.53;99391.38;4907264;29;20202;-56
2022/09/27 09:58:27;;;;;;;1.97;1.00;;;14.70;77.70;;;17.57;55.59;99385.47;4905793;29;20210;-58
2022/09/27 10:01:08;;;;;;;3.83;1.23;;;14.60;77.40;;;17.53;55.68;99384.38;4908007;29;20195;-55
2022/09/27 10:03:35;;;;;;;2.67;1.23;;;14.60;77.70;;;17.49;55.73;99388.59;4911985;29;20662;-57
2022/09/27 10:06:03;;;;;;;1.70;1.00;;;14.60;77.70;;;17.43;56.11;99392.25;4906858;29;20760;-62
2022/09/27 10:08:32;;;;;;;3.33;1.63;;;14.50;77.80;;;17.38;56.20;99391.38;4908187;29;20218;-62
2022/09/27 10:11:01;;;;;;;3.17;1.50;;;14.50;78.00;;;17.35;56.33;99387.38;4908007;29;20802;-61
2022/09/27 10:13:34;;;;;;;3.30;1.30;;;14.50;78.00;;;17.31;56.33;99394.25;4897867;29;20227;-61
2022/09/27 10:16:07;;;;;;;3.03;1.70;;;14.50;78.00;;;17.32;56.66;99398.53;4898430;29;20222;-60
2022/09/27 10:18:38;;;;;;;3.87;1.57;;;14.50;78.60;;;17.32;56.64;99398.53;4904341;29;20199;-59
2022/09/27 10:21:13;;;;;;;3.63;1.50;;;14.50;78.80;;;17.37;56.85;99401.25;4902170;29;20240;-59
2022/09/27 10:24:09;;;;;;;2.93;1.50;;;14.40;78.80;;;17.36;56.61;99393.50;4898542;29;20226;-60
2022/09/27 10:26:49;;;;;;;3.03;1.53;;;14.50;78.90;;;17.39;56.65;99399.13;4893417;29;20233;-60
2022/09/27 10:29:29;;;;;;;5.63;1.67;;;14.50;78.90;;;17.40;56.69;99397.28;4907023;29;20206;-59
2022/09/27 10:32:20;;;;;;;1.50;1.03;;;14.50;78.80;;;17.40;56.53;99405.25;4897710;29;20232;-61
2022/09/27 10:34:50;;;;;;;2.00;1.13;;;14.50;78.80;;;17.43;56.39;99399.41;4905884;29;20210;-60
2022/09/27 10:37:21;;;;;;;3.33;1.37;;;14.50;78.60;;;17.41;56.90;99394.34;4906954;29;20199;-61
2022/09/27 10:39:51;;;;;;;2.20;1.40;;;14.50;78.70;;;17.45;56.67;99403.44;4902260;29;20523;-62
2022/09/27 10:42:34;;;;;;;2.77;1.40;;;14.50;78.90;;;17.44;56.50;99396.53;4904814;29;20326;-61
2022/09/27 10:45:25;;;;;;;1.40;1.30;;;14.50;78.50;;;17.45;56.42;99403.44;4904359;29;20227;-61
2022/09/27 10:47:54;;;;;;;1.63;1.10;;;14.50;78.90;;;17.51;56.67;99407.78;4906348;29;20187;-60
2022/09/27 10:50:25;;;;;;;2.00;1.17;;;14.50;78.60;;;17.55;56.44;99406.22;4904137;29;20215;-64